This is the latest recevied weather packets stored in our database for station/object VA7NEZ. If no packets are shown the sender has not sent any weather packets the latest 10 day(s).
| Time | Temp. | Humidity | Pressure | Rain* | Wind** | Luminosity | Snow |
|---|---|---|---|---|---|---|---|
| 1778147347 | 13.89° C | 57% | 1014.9 hPa | 0 mm | - | - | - |
| 1778146813 | 13.89° C | 55% | 1014.9 hPa | 0 mm | - | - | - |
| 1778146219 | 14.44° C | 54% | 1014.6 hPa | 0 mm | - | - | - |
| 1778145697 | 13.89° C | 55% | 1014.4 hPa | 0 mm | - | - | - |
| 1778144577 | 13.89° C | 57% | 1014.5 hPa | 0 mm | - | - | - |
| 1778144013 | 14.44° C | 55% | 1014.4 hPa | 0 mm | - | - | - |
| 1778143472 | 15° C | 52% | 1014.4 hPa | 0 mm | - | - | - |
| 1778142893 | 15° C | 54% | 1014.3 hPa | 0 mm | - | - | - |
| 1778141257 | 15.56° C | 49% | 1013.9 hPa | 0 mm | - | - | - |
| 1778140708 | 15.56° C | 49% | 1013.8 hPa | 0 mm | - | - | - |
| 1778140147 | 15.56° C | 49% | 1013.8 hPa | 0 mm | - | - | - |
| 1778139547 | 0° C | 100% | 1013.6 hPa | 0 mm | - | - | - |
| 1778139032 | 16.11° C | 48% | 1013.7 hPa | 0 mm | - | - | - |
| 1778138497 | 16.11° C | 48% | 1013.5 hPa | 0 mm | - | - | - |
| 1778138012 | 15.56° C | 49% | 1013.3 hPa | 0 mm | - | - | - |
| 1778137458 | 15.56° C | 49% | 1013.2 hPa | 0 mm | - | - | - |
| 1778136863 | 16.11° C | 49% | 1013 hPa | 0 mm | - | - | - |
| 1778136332 | 16.11° C | 48% | 1013.1 hPa | 0 mm | - | - | - |
| 1778135829 | 16.67° C | 46% | 1013 hPa | 0 mm | - | - | - |
| 1778135312 | 16.67° C | 46% | 1013 hPa | 0 mm | - | - | - |
| 1778134798 | 17.22° C | 45% | 1012.7 hPa | 0 mm | - | - | - |
| 1778131953 | 17.22° C | 46% | 1012.3 hPa | 0 mm | - | - | - |
| 1778131352 | 17.22° C | 45% | 1012.2 hPa | 0 mm | - | - | - |
| 1778130814 | 17.78° C | 45% | 1012.1 hPa | 0 mm | - | - | - |
| 1778130267 | 17.78° C | 45% | 1012 hPa | 0 mm | - | - | - |
* Rain latest hour (hover to see other rain measurements)
** Current wind speed in m/s (hover to see current wind gust speed)